Chievres, Belgium
Current Conditions -  °F | °C
As of 2:25 AM on Thursday 23 Oct 2014 (Local Time) from EBCV Reporting Station
Broken Clouds Broken Clouds  
Wind Chill: 44°   Ceiling: 4800
Heat Index: 46°   Visibility: 6mi
Dew Point: 43°   Wind: 6mph
Humidity: 87%   Direction: 200°SSW
Pressure: 30.24"   Gusts: NA
Location:  50.58°N, 3.8°E
Report Text: EBCV 230025Z AUTO 20005KT 9000 BKN048/// 08/06 Q1024 BLU
Loading
Personal Weather Stations






























Interactive Weather Map
Tropical Storm Tracking
New forecast layout! Learn more

10-Day Weather Forecast

Advertisements
Track Severe Weather on mobile